Time;durP1;ratioP1;P1;durP2;ratioP2;P2;SDS_P1;SDS_P2;PMS_P1;PMS_P2;Temp;Humidity;BMP_temperature;BMP_pressure;BME280_temperature;BME280_humidity;BME280_pressure;Samples;Min_cycle;Max_cycle;Signal;HPM_P1;HPM_P2
2022/01/04 00:00:51;;;;;;;12.10;5.95;;;17.50;96.60;;;;;;4925764;28;113552;-68
2022/01/04 00:03:17;;;;;;;15.45;7.88;;;17.40;96.70;;;;;;4924769;28;113596;-68
2022/01/04 00:05:43;;;;;;;15.15;6.78;;;17.30;96.90;;;;;;4928997;28;112354;-66
2022/01/04 00:08:11;;;;;;;27.42;7.95;;;17.30;97.10;;;;;;4929247;28;112766;-68
2022/01/04 00:10:37;;;;;;;14.02;7.18;;;17.20;97.40;;;;;;4928794;28;113922;-69
2022/01/04 00:15:57;;;;;;;13.50;7.80;;;17.00;97.40;;;;;;4929952;28;112513;-66
2022/01/04 00:18:25;;;;;;;18.80;6.63;;;16.90;97.60;;;;;;4929688;28;112451;-69
2022/01/04 00:20:51;;;;;;;11.60;6.07;;;16.90;97.70;;;;;;4928820;28;112953;-68
2022/01/04 00:23:18;;;;;;;11.05;5.60;;;16.90;97.70;;;;;;4927473;28;112610;-69
2022/01/04 00:25:44;;;;;;;9.57;5.50;;;16.90;97.70;;;;;;4928248;28;112594;-67
2022/01/04 00:28:11;;;;;;;8.48;5.32;;;16.90;97.80;;;;;;4928773;28;112933;-68
2022/01/04 00:30:38;;;;;;;9.35;5.57;;;17.00;97.80;;;;;;4927927;28;112928;-67
2022/01/04 00:33:05;;;;;;;8.85;5.43;;;17.00;97.80;;;;;;4927667;28;113876;-68
2022/01/04 00:35:31;;;;;;;10.35;5.35;;;17.20;97.70;;;;;;4929138;28;112542;-70
2022/01/04 00:37:57;;;;;;;9.68;5.13;;;17.30;97.60;;;;;;4928682;28;112612;-67
2022/01/04 00:40:24;;;;;;;6.38;5.20;;;17.40;97.70;;;;;;4926439;28;114940;-68
2022/01/04 00:42:51;;;;;;;9.70;5.93;;;17.50;97.60;;;;;;4925984;28;116103;-68
2022/01/04 00:45:17;;;;;;;10.45;5.78;;;17.50;97.60;;;;;;4929150;28;112677;-66
2022/01/04 00:50:26;;;;;;;10.95;6.50;;;17.60;97.60;;;;;;4918248;28;112961;-60
2022/01/04 00:52:52;;;;;;;11.32;6.85;;;17.60;97.60;;;;;;4928394;28;112775;-64
2022/01/04 00:55:18;;;;;;;9.93;6.03;;;17.50;97.70;;;;;;4940309;22;112643;-63
2022/01/04 00:57:44;;;;;;;15.07;7.55;;;17.50;97.70;;;;;;4946632;28;112936;-69
2022/01/04 01:00:12;;;;;;;18.40;9.82;;;17.50;97.80;;;;;;4945237;28;115071;-68
2022/01/04 01:02:38;;;;;;;19.65;9.40;;;17.40;98.00;;;;;;4945317;28;113873;-68
2022/01/04 01:05:05;;;;;;;22.10;9.55;;;17.40;98.10;;;;;;4946436;28;112718;-67
2022/01/04 01:07:33;;;;;;;17.58;8.88;;;17.30;98.20;;;;;;4930299;28;112846;-68
2022/01/04 01:12:43;;;;;;;27.65;9.25;;;17.20;98.30;;;;;;4946092;28;112601;-67
2022/01/04 01:15:09;;;;;;;24.30;12.05;;;17.20;98.50;;;;;;4945610;28;112450;-69
2022/01/04 01:17:35;;;;;;;20.05;9.80;;;17.10;98.80;;;;;;4947100;28;112650;-68
2022/01/04 01:20:04;;;;;;;22.52;9.35;;;17.10;98.90;;;;;;4946626;28;113096;-68
2022/01/04 01:22:30;;;;;;;26.80;10.52;;;17.00;98.90;;;;;;4946809;28;112697;-68
2022/01/04 01:24:55;;;;;;;21.42;9.82;;;16.90;99.00;;;;;;4946189;28;112639;-67
2022/01/04 01:27:21;;;;;;;24.35;10.05;;;17.00;99.20;;;;;;4930832;28;112511;-66
2022/01/04 01:29:47;;;;;;;23.15;10.38;;;16.90;99.20;;;;;;4944842;28;113188;-65
2022/01/04 01:32:13;;;;;;;31.10;13.43;;;16.80;99.30;;;;;;4945763;28;112471;-68
2022/01/04 01:34:41;;;;;;;24.55;11.23;;;16.80;99.30;;;;;;4945447;28;112739;-69
2022/01/04 01:37:06;;;;;;;22.77;10.82;;;16.80;99.40;;;;;;4946289;28;112615;-66
2022/01/04 01:39:32;;;;;;;35.03;11.25;;;16.70;99.40;;;;;;4934471;28;112927;-69
2022/01/04 01:41:58;;;;;;;26.13;11.15;;;16.70;99.50;;;;;;4926221;28;112373;-67
2022/01/04 01:44:24;;;;;;;19.42;9.95;;;16.70;99.60;;;;;;4935850;28;112495;-68
2022/01/04 01:46:50;;;;;;;20.95;9.13;;;16.80;99.50;;;;;;4947912;28;112313;-67
2022/01/04 01:49:16;;;;;;;29.92;10.65;;;16.70;99.50;;;;;;4959580;28;115021;-68
2022/01/04 01:51:42;;;;;;;20.95;9.57;;;16.70;99.70;;;;;;4946244;28;112492;-69
2022/01/04 01:54:08;;;;;;;19.95;9.95;;;16.70;99.80;;;;;;4947248;28;112864;-68
2022/01/04 01:56:34;;;;;;;18.80;10.45;;;16.70;99.90;;;;;;4946262;28;112370;-69
2022/01/04 01:58:59;;;;;;;19.08;10.15;;;16.70;99.90;;;;;;4942805;28;114682;-68
2022/01/04 02:01:25;;;;;;;21.02;10.43;;;16.70;99.90;;;;;;4944368;28;113487;-68
2022/01/04 02:03:51;;;;;;;20.15;11.93;;;16.70;99.90;;;;;;4945337;28;112356;-64
2022/01/04 02:06:19;;;;;;;20.30;11.88;;;16.60;99.90;;;;;;4946693;28;112590;-71
2022/01/04 02:08:45;;;;;;;18.65;9.45;;;16.60;99.90;;;;;;4944011;28;113658;-71
2022/01/04 02:11:12;;;;;;;18.48;8.32;;;16.60;99.90;;;;;;4945877;28;112502;-69
2022/01/04 02:13:38;;;;;;;16.25;8.80;;;16.70;99.90;;;;;;4946146;28;112830;-67
2022/01/04 02:16:07;;;;;;;15.18;7.90;;;16.80;99.90;;;;;;4930039;28;112797;-69
2022/01/04 02:18:33;;;;;;;16.13;9.50;;;16.80;99.80;;;;;;4944999;28;113768;-67
2022/01/04 02:20:58;;;;;;;13.55;7.15;;;16.80;99.80;;;;;;4946152;28;113536;-69
2022/01/04 02:23:24;;;;;;;16.98;7.22;;;16.80;99.80;;;;;;4947701;28;112371;-64
2022/01/04 02:25:50;;;;;;;13.73;7.70;;;16.80;99.70;;;;;;4945265;28;112799;-69
2022/01/04 02:28:20;;;;;;;14.85;7.10;;;16.90;99.70;;;;;;4920801;23;116004;-59
2022/01/04 02:30:47;;;;;;;12.15;7.45;;;17.00;99.50;;;;;;4936002;28;113455;-59
2022/01/04 02:33:14;;;;;;;11.90;7.13;;;17.00;99.50;;;;;;4938548;28;112790;-59
2022/01/04 02:35:39;;;;;;;9.38;6.97;;;17.10;99.40;;;;;;4946961;28;112711;-61
2022/01/04 02:38:05;;;;;;;13.10;6.85;;;17.10;99.20;;;;;;4945715;28;114695;-58
2022/01/04 02:40:31;;;;;;;13.95;6.70;;;17.10;99.10;;;;;;4944317;28;113310;-60
2022/01/04 02:42:58;;;;;;;12.18;6.57;;;17.10;99.00;;;;;;4945382;28;112586;-61
2022/01/04 02:45:24;;;;;;;16.35;7.53;;;17.20;98.90;;;;;;4946624;28;113149;-59
2022/01/04 02:47:50;;;;;;;12.75;5.90;;;17.20;98.80;;;;;;4945558;28;113267;-58
2022/01/04 02:50:16;;;;;;;11.25;6.50;;;17.20;98.70;;;;;;4945965;28;113397;-60
2022/01/04 02:52:42;;;;;;;13.63;6.25;;;17.20;98.70;;;;;;4945252;28;113348;-59
2022/01/04 02:55:11;;;;;;;17.98;6.95;;;17.30;98.50;;;;;;4945616;28;112878;-59
2022/01/04 02:57:38;;;;;;;13.27;6.40;;;17.30;98.50;;;;;;4944823;28;114769;-59
2022/01/04 03:00:07;;;;;;;9.85;5.85;;;17.30;98.40;;;;;;4945516;28;113700;-60
2022/01/04 03:02:33;;;;;;;9.27;6.32;;;17.30;98.40;;;;;;4945735;28;112597;-60
2022/01/04 03:04:59;;;;;;;11.68;6.20;;;17.30;98.40;;;;;;4945097;28;112477;-59
2022/01/04 03:07:25;;;;;;;10.30;5.93;;;17.30;98.30;;;;;;4944154;28;113238;-61
2022/01/04 03:09:51;;;;;;;10.38;5.50;;;17.40;98.20;;;;;;4944538;28;113394;-60
2022/01/04 03:12:16;;;;;;;9.43;5.40;;;17.50;98.00;;;;;;4945609;28;112706;-61
2022/01/04 03:14:42;;;;;;;9.65;5.63;;;17.50;98.00;;;;;;4946450;28;112616;-59
2022/01/04 03:17:08;;;;;;;13.82;5.97;;;17.50;97.80;;;;;;4944587;28;113371;-61
2022/01/04 03:19:34;;;;;;;9.05;5.85;;;17.50;97.60;;;;;;4945262;28;112642;-58
2022/01/04 03:22:00;;;;;;;10.88;6.13;;;17.50;97.70;;;;;;4944906;28;113306;-60
2022/01/04 03:24:26;;;;;;;10.85;5.50;;;17.60;97.60;;;;;;4945053;28;112675;-60
2022/01/04 03:26:52;;;;;;;9.82;5.63;;;17.60;97.50;;;;;;4944640;28;113104;-60
2022/01/04 03:29:18;;;;;;;13.40;7.00;;;17.60;97.30;;;;;;4926707;28;113016;-60
2022/01/04 03:31:44;;;;;;;6.97;5.10;;;17.70;97.40;;;;;;4924932;28;112672;-59
2022/01/04 03:34:12;;;;;;;9.75;5.55;;;17.60;97.30;;;;;;4942638;28;112677;-59
2022/01/04 03:36:38;;;;;;;9.57;5.78;;;17.60;97.40;;;;;;4945723;28;113018;-59
2022/01/04 03:39:06;;;;;;;11.57;5.80;;;17.60;97.30;;;;;;4942061;28;114784;-60
2022/01/04 03:41:41;;;;;;;10.32;6.30;;;17.60;97.40;;;;;;4945354;28;112370;-59
2022/01/04 03:44:10;;;;;;;7.40;5.30;;;17.60;97.40;;;;;;4944958;28;112297;-59
2022/01/04 03:46:36;;;;;;;10.30;6.20;;;17.60;97.40;;;;;;4945384;28;114002;-59
2022/01/04 03:49:03;;;;;;;8.73;6.13;;;17.60;97.40;;;;;;4943451;28;113372;-59
2022/01/04 03:51:29;;;;;;;11.80;6.30;;;17.50;97.70;;;;;;4945931;28;113115;-59
2022/01/04 03:53:55;;;;;;;33.88;12.50;;;17.40;98.00;;;;;;4945828;28;112778;-59
2022/01/04 03:56:21;;;;;;;38.60;12.75;;;17.30;98.80;;;;;;4944846;28;113194;-60
2022/01/04 03:58:47;;;;;;;40.65;11.05;;;17.20;99.20;;;;;;4942753;28;113425;-59
2022/01/04 04:01:13;;;;;;;20.00;7.82;;;17.20;99.90;;;;;;4943118;28;112644;-60
2022/01/04 04:03:38;;;;;;;15.45;7.38;;;17.20;99.90;;;;;;4944400;28;112460;-60
2022/01/04 04:06:04;;;;;;;21.63;6.78;;;17.20;99.90;;;;;;4943124;28;114348;-60
2022/01/04 04:08:30;;;;;;;15.57;5.68;;;17.20;99.90;;;;;;4943826;28;113178;-59
2022/01/04 04:10:56;;;;;;;24.50;4.32;;;17.20;99.90;;;;;;4945637;28;112622;-60
2022/01/04 04:13:21;;;;;;;25.63;6.18;;;17.20;99.90;;;;;;4944531;28;113281;-60
2022/01/04 04:15:48;;;;;;;21.95;4.88;;;17.30;99.90;;;;;;4944118;28;114692;-59
2022/01/04 04:18:16;;;;;;;23.70;5.95;;;17.30;99.90;;;;;;4943783;28;112719;-59
2022/01/04 04:20:42;;;;;;;25.25;5.95;;;17.30;99.90;;;;;;4945728;28;112719;-59
2022/01/04 04:23:08;;;;;;;31.15;6.72;;;17.20;99.90;;;;;;4944730;28;112613;-59
2022/01/04 04:25:34;;;;;;;20.65;5.60;;;17.00;99.90;;;;;;4944549;28;114446;-60
2022/01/04 04:28:00;;;;;;;20.65;5.07;;;16.80;99.90;;;;;;4942906;28;113117;-59
2022/01/04 04:30:26;;;;;;;23.42;5.10;;;16.70;99.90;;;;;;4945369;28;112871;-59
2022/01/04 04:32:52;;;;;;;16.50;4.95;;;16.40;99.90;;;;;;4941498;28;112570;-60
2022/01/04 04:35:19;;;;;;;22.45;4.47;;;16.30;99.90;;;;;;4924965;28;114402;-60
2022/01/04 04:37:44;;;;;;;19.77;4.20;;;16.10;99.90;;;;;;4924389;28;112897;-59
2022/01/04 04:40:11;;;;;;;17.40;4.32;;;16.00;99.90;;;;;;4925967;28;112648;-60
2022/01/04 04:42:36;;;;;;;19.73;4.50;;;15.80;99.90;;;;;;4925332;28;112709;-59
2022/01/04 04:45:03;;;;;;;20.17;4.45;;;15.70;99.90;;;;;;4942148;28;113107;-59
2022/01/04 04:47:29;;;;;;;13.63;4.13;;;15.60;99.90;;;;;;4944195;28;113766;-61
2022/01/04 04:49:55;;;;;;;20.33;3.47;;;15.50;99.90;;;;;;4940385;28;112634;-59
2022/01/04 04:52:21;;;;;;;18.83;4.60;;;15.40;99.90;;;;;;4983016;22;114282;-62
2022/01/04 04:54:47;;;;;;;23.52;4.28;;;15.40;99.90;;;;;;4946755;28;114175;-67
2022/01/04 04:57:14;;;;;;;14.52;3.88;;;15.30;99.90;;;;;;4945872;28;115199;-67
2022/01/04 04:59:40;;;;;;;23.02;3.88;;;15.30;99.90;;;;;;4946011;28;112578;-68
2022/01/04 05:02:07;;;;;;;17.52;3.70;;;15.20;99.90;;;;;;4946319;28;112658;-68
2022/01/04 05:04:37;;;;;;;14.18;3.35;;;15.10;99.90;;;;;;4945068;28;114252;-67
2022/01/04 05:07:03;;;;;;;23.05;3.45;;;15.00;99.90;;;;;;4946920;28;113030;-67
2022/01/04 05:09:29;;;;;;;24.23;3.38;;;15.00;99.90;;;;;;4931177;28;112773;-67
2022/01/04 05:11:55;;;;;;;17.65;3.67;;;14.90;99.90;;;;;;4947571;28;112485;-67
2022/01/04 05:14:21;;;;;;;29.77;3.70;;;14.70;99.90;;;;;;4945040;28;113833;-66
2022/01/04 05:16:47;;;;;;;19.17;4.43;;;14.70;99.90;;;;;;4944985;28;115137;-67
2022/01/04 05:19:13;;;;;;;18.42;3.55;;;14.60;99.90;;;;;;4946850;28;112803;-67
2022/01/04 05:21:39;;;;;;;19.13;3.83;;;14.40;99.90;;;;;;4945165;28;113566;-64
2022/01/04 05:24:06;;;;;;;14.60;3.80;;;14.30;99.90;;;;;;4945269;28;114174;-67
2022/01/04 05:26:34;;;;;;;21.42;4.53;;;14.30;99.90;;;;;;4945111;28;112784;-67
2022/01/04 05:29:01;;;;;;;20.77;4.00;;;14.20;99.90;;;;;;4943198;28;112692;-62
2022/01/04 05:31:27;;;;;;;17.25;3.08;;;14.20;99.90;;;;;;4947405;28;112557;-67
2022/01/04 05:33:53;;;;;;;23.00;3.00;;;14.10;99.90;;;;;;4945329;28;114001;-68
2022/01/04 05:36:18;;;;;;;26.65;3.47;;;14.10;99.90;;;;;;4946189;28;113576;-67
2022/01/04 05:38:44;;;;;;;20.40;3.33;;;14.00;99.90;;;;;;4946038;28;112671;-67
2022/01/04 05:41:10;;;;;;;16.73;3.95;;;14.00;99.90;;;;;;4929506;28;112403;-67
2022/01/04 05:43:36;;;;;;;19.40;3.03;;;13.90;99.90;;;;;;4945193;28;113137;-67
2022/01/04 05:46:02;;;;;;;25.85;3.58;;;13.90;99.90;;;;;;4946004;28;112650;-67
2022/01/04 05:48:28;;;;;;;19.95;3.53;;;13.90;99.90;;;;;;4946040;28;112493;-68
2022/01/04 05:50:54;;;;;;;15.38;3.88;;;13.80;99.90;;;;;;4929455;28;112645;-68
2022/01/04 05:53:19;;;;;;;18.30;3.10;;;13.80;99.90;;;;;;4943568;28;113582;-67
2022/01/04 05:55:45;;;;;;;16.13;2.30;;;13.80;99.90;;;;;;4946178;28;113747;-65
2022/01/04 05:58:11;;;;;;;13.38;3.45;;;13.80;99.90;;;;;;4946618;28;112923;-67
2022/01/04 06:00:37;;;;;;;19.17;3.08;;;13.70;99.90;;;;;;4946285;28;112479;-68
2022/01/04 06:03:03;;;;;;;17.90;2.60;;;13.70;99.90;;;;;;4942762;28;115202;-63
2022/01/04 06:05:29;;;;;;;21.05;2.67;;;13.70;99.90;;;;;;4946561;28;112559;-71
2022/01/04 06:07:55;;;;;;;21.65;2.92;;;13.70;99.90;;;;;;4947598;28;112317;-67
2022/01/04 06:10:21;;;;;;;23.85;3.92;;;13.70;99.90;;;;;;4946228;28;112540;-68
2022/01/04 06:15:17;;;;;;;15.30;3.43;;;13.60;99.90;;;;;;4943372;28;113044;-67
2022/01/04 06:17:46;;;;;;;21.05;2.45;;;13.60;99.90;;;;;;4946652;28;112605;-66
2022/01/04 06:20:14;;;;;;;13.90;2.42;;;13.50;99.90;;;;;;4945266;28;112637;-67
2022/01/04 06:22:40;;;;;;;25.55;3.47;;;13.40;99.90;;;;;;4946598;28;112916;-66
2022/01/04 06:25:10;;;;;;;16.98;2.45;;;13.40;99.90;;;;;;4945597;28;112989;-64
2022/01/04 06:27:36;;;;;;;23.42;2.65;;;13.40;99.90;;;;;;4947346;28;112476;-68
2022/01/04 06:30:04;;;;;;;22.75;3.40;;;13.30;99.90;;;;;;4927915;28;114179;-69
2022/01/04 06:32:30;;;;;;;16.77;3.38;;;13.20;99.90;;;;;;4945189;28;113121;-69
2022/01/04 06:34:56;;;;;;;17.30;2.75;;;13.20;99.90;;;;;;4945166;28;112860;-68
2022/01/04 06:37:22;;;;;;;17.98;2.83;;;13.10;99.90;;;;;;4946349;28;112727;-66
2022/01/04 06:39:48;;;;;;;16.75;2.42;;;13.10;99.90;;;;;;4944076;28;112569;-69
2022/01/04 06:42:14;;;;;;;17.80;3.20;;;13.10;99.90;;;;;;4946184;28;113722;-71
2022/01/04 06:44:43;;;;;;;19.75;2.60;;;13.10;99.90;;;;;;4945536;28;113905;-69
2022/01/04 06:47:10;;;;;;;19.73;3.63;;;13.10;99.90;;;;;;4946702;28;112408;-66
2022/01/04 06:49:37;;;;;;;22.95;3.08;;;13.10;99.90;;;;;;4927600;28;112797;-69
2022/01/04 06:52:04;;;;;;;18.50;3.03;;;13.20;99.90;;;;;;4945758;28;112911;-70
2022/01/04 06:54:30;;;;;;;32.80;3.85;;;13.20;99.90;;;;;;4943948;28;113253;-67
2022/01/04 06:56:56;;;;;;;18.60;3.83;;;13.10;99.90;;;;;;4946167;28;112757;-69
2022/01/04 06:59:22;;;;;;;19.92;3.13;;;13.10;99.90;;;;;;4944900;28;112506;-68
2022/01/04 07:01:48;;;;;;;24.27;3.80;;;13.10;99.90;;;;;;4944133;28;113405;-65
2022/01/04 07:04:14;;;;;;;16.67;2.35;;;13.10;99.90;;;;;;4944178;28;113809;-69
2022/01/04 07:06:41;;;;;;;15.40;2.45;;;13.00;99.90;;;;;;4945577;28;112553;-69
2022/01/04 07:09:08;;;;;;;12.77;2.45;;;13.00;99.90;;;;;;4944985;28;112501;-67
2022/01/04 07:11:35;;;;;;;20.42;3.30;;;13.00;99.90;;;;;;4945508;28;113822;-69
2022/01/04 07:14:01;;;;;;;26.67;3.53;;;13.00;99.90;;;;;;4944086;28;112969;-67
2022/01/04 07:16:27;;;;;;;23.88;4.38;;;12.90;99.90;;;;;;4944871;28;112618;-66
2022/01/04 07:18:53;;;;;;;29.33;3.47;;;12.90;99.90;;;;;;4943721;28;112697;-65
2022/01/04 07:21:20;;;;;;;26.77;3.78;;;12.80;99.90;;;;;;4943561;28;113416;-66
2022/01/04 07:23:48;;;;;;;18.73;2.83;;;12.80;99.90;;;;;;4944353;28;112940;-64
2022/01/04 07:26:15;;;;;;;17.20;3.00;;;12.70;99.90;;;;;;4955712;22;112732;-59
2022/01/04 07:28:44;;;;;;;19.10;4.30;;;12.60;99.90;;;;;;4945146;28;112452;-58
2022/01/04 07:31:10;;;;;;;24.45;3.80;;;12.60;99.90;;;;;;4943953;28;113162;-58
2022/01/04 07:33:36;;;;;;;20.60;4.43;;;12.50;99.90;;;;;;4944945;28;114819;-58
2022/01/04 07:36:02;;;;;;;21.90;5.90;;;12.40;99.90;;;;;;4931850;28;112642;-60
2022/01/04 07:38:28;;;;;;;25.65;6.00;;;12.30;99.90;;;;;;4944730;28;112591;-60
2022/01/04 07:40:54;;;;;;;24.35;4.45;;;12.30;99.90;;;;;;4939968;28;113052;-62
2022/01/04 07:43:20;;;;;;;22.55;5.47;;;12.30;99.90;;;;;;4944299;28;112967;-62
2022/01/04 07:45:46;;;;;;;17.08;4.68;;;12.20;99.90;;;;;;4961238;28;113084;-61
2022/01/04 07:48:12;;;;;;;18.30;4.55;;;12.20;99.90;;;;;;4964314;28;113627;-60
2022/01/04 07:50:38;;;;;;;20.38;4.72;;;12.20;99.90;;;;;;4963804;28;114143;-61
2022/01/04 07:53:05;;;;;;;34.70;8.30;;;12.20;99.90;;;;;;4954672;28;114226;-63
2022/01/04 07:55:32;;;;;;;30.42;8.75;;;12.20;99.90;;;;;;4963935;28;112453;-61
2022/01/04 07:57:58;;;;;;;22.80;6.95;;;12.10;99.90;;;;;;4964056;28;112779;-62
2022/01/04 08:00:25;;;;;;;34.15;5.32;;;12.10;99.90;;;;;;4962963;28;114312;-61
2022/01/04 08:02:52;;;;;;;27.15;5.43;;;12.10;99.90;;;;;;4962806;28;112856;-61
2022/01/04 08:05:18;;;;;;;20.48;3.28;;;12.00;99.90;;;;;;4964198;28;112702;-61
2022/01/04 08:07:44;;;;;;;21.80;4.53;;;12.00;99.90;;;;;;4964154;28;112392;-60
2022/01/04 08:10:10;;;;;;;23.67;3.08;;;11.90;99.90;;;;;;4962408;28;113568;-61
2022/01/04 08:12:37;;;;;;;23.13;2.70;;;11.80;99.90;;;;;;4960948;22;112724;-61
2022/01/04 08:15:04;;;;;;;19.60;3.10;;;11.80;99.90;;;;;;4947712;28;112805;-69
2022/01/04 08:17:31;;;;;;;13.60;2.08;;;11.70;99.90;;;;;;4963671;28;112483;-66
2022/01/04 08:20:03;;;;;;;16.13;1.40;;;11.60;99.90;;;;;;4955203;28;112959;-66
2022/01/04 08:22:32;;;;;;;17.65;2.45;;;11.50;99.90;;;;;;4961439;28;115629;-67
2022/01/04 08:25:05;;;;;;;10.60;1.55;;;11.50;99.90;;;;;;4951661;28;113508;-66
2022/01/04 08:27:31;;;;;;;15.43;2.00;;;11.40;99.90;;;;;;4960190;28;112497;-66
2022/01/04 08:29:57;;;;;;;10.20;1.67;;;11.40;99.90;;;;;;4965000;28;114240;-68
2022/01/04 08:32:23;;;;;;;19.48;2.60;;;11.40;99.90;;;;;;4963238;28;113187;-67
2022/01/04 08:34:50;;;;;;;15.02;2.33;;;11.30;99.90;;;;;;4954196;28;113691;-67
2022/01/04 08:37:17;;;;;;;18.35;2.88;;;11.30;99.90;;;;;;4962467;28;112585;-63
2022/01/04 08:39:43;;;;;;;26.83;3.30;;;11.40;99.90;;;;;;4959463;28;113187;-66
2022/01/04 08:42:09;;;;;;;20.45;2.60;;;11.40;99.90;;;;;;4964226;28;113486;-65
2022/01/04 08:44:39;;;;;;;22.55;3.05;;;11.40;99.90;;;;;;4963102;28;112801;-69
2022/01/04 08:47:09;;;;;;;34.40;5.03;;;11.30;99.90;;;;;;4960920;28;113146;-64
2022/01/04 08:49:35;;;;;;;31.42;4.15;;;11.30;99.90;;;;;;4966071;28;114244;-63
2022/01/04 08:52:03;;;;;;;25.98;3.70;;;11.30;99.90;;;;;;4969432;22;114655;-59
2022/01/04 08:54:29;;;;;;;25.58;3.60;;;11.30;99.90;;;;;;4956351;28;112527;-62
2022/01/04 08:56:55;;;;;;;18.02;2.38;;;11.20;99.90;;;;;;4947871;28;113523;-62
2022/01/04 08:59:21;;;;;;;13.55;2.22;;;11.20;99.90;;;;;;4955159;28;114506;-62
2022/01/04 09:01:47;;;;;;;23.92;2.10;;;11.10;99.90;;;;;;4964558;28;113743;-61
2022/01/04 09:04:13;;;;;;;12.60;2.55;;;11.10;99.90;;;;;;4951645;28;113434;-62
2022/01/04 09:06:40;;;;;;;15.13;2.80;;;11.10;99.90;;;;;;4966542;28;112839;-61
2022/01/04 09:11:34;;;;;;;13.57;1.95;;;11.10;99.90;;;;;;4911930;28;113735;-67
2022/01/04 09:14:19;;;;;;;21.85;3.47;;;11.10;99.90;;;;;;4922302;28;112489;-65
2022/01/04 09:19:29;;;;;;;11.65;1.33;;;11.20;99.90;;;;;;4915657;28;112711;-63
2022/01/04 09:21:55;;;;;;;13.00;2.38;;;11.20;99.90;;;;;;4908100;28;112530;-66
2022/01/04 09:24:21;;;;;;;13.05;3.60;;;11.10;99.90;;;;;;4926185;28;114236;-63
2022/01/04 09:26:47;;;;;;;17.73;2.38;;;11.10;99.90;;;;;;4924849;28;112699;-67
2022/01/04 09:29:17;;;;;;;20.48;2.33;;;11.10;99.90;;;;;;4902232;28;115395;-65
2022/01/04 09:31:43;;;;;;;9.45;1.75;;;11.00;99.90;;;;;;4914366;28;113090;-67
2022/01/04 09:34:09;;;;;;;9.40;2.10;;;10.90;99.90;;;;;;4923896;28;112660;-66
2022/01/04 09:36:38;;;;;;;13.25;2.22;;;10.90;99.90;;;;;;4926634;28;112493;-66
2022/01/04 09:39:08;;;;;;;13.43;2.83;;;10.80;99.90;;;;;;4920355;28;114412;-65
2022/01/04 09:41:37;;;;;;;18.88;2.60;;;10.80;99.90;;;;;;4921262;28;112926;-65
2022/01/04 09:44:04;;;;;;;13.88;2.42;;;10.80;99.90;;;;;;4890243;28;112996;-64
2022/01/04 09:46:32;;;;;;;13.57;2.38;;;10.80;99.90;;;;;;4905016;28;112679;-63
2022/01/04 09:48:58;;;;;;;13.27;2.03;;;10.80;99.90;;;;;;4920441;28;113060;-65
2022/01/04 09:51:26;;;;;;;13.13;2.28;;;10.80;99.90;;;;;;4922361;28;112809;-62
2022/01/04 09:53:52;;;;;;;22.27;3.08;;;10.80;99.90;;;;;;4923977;28;112900;-63
2022/01/04 09:56:18;;;;;;;12.13;2.03;;;10.80;99.90;;;;;;4919218;28;112624;-66
2022/01/04 09:58:46;;;;;;;23.42;2.88;;;10.80;99.90;;;;;;4925420;28;113460;-66
2022/01/04 10:01:23;;;;;;;10.13;2.33;;;10.80;99.90;;;;;;4905086;28;112429;-63
2022/01/04 10:03:49;;;;;;;17.10;3.00;;;10.80;99.90;;;;;;4925495;28;112697;-64
2022/01/04 10:06:15;;;;;;;15.50;3.13;;;10.70;99.90;;;;;;4922112;28;112567;-61
2022/01/04 10:09:03;;;;;;;17.02;3.03;;;10.70;99.90;;;;;;4925460;28;114257;-67
2022/01/04 10:11:39;;;;;;;19.40;2.55;;;10.70;99.90;;;;;;4910395;28;113316;-68
2022/01/04 10:14:24;;;;;;;12.07;3.13;;;10.60;99.90;;;;;;4910396;28;112374;-69
2022/01/04 10:16:52;;;;;;;14.05;3.30;;;10.60;99.90;;;;;;4923932;28;112809;-67
2022/01/04 10:19:32;;;;;;;14.68;3.10;;;10.60;99.90;;;;;;4916268;28;113270;-69
2022/01/04 10:22:12;;;;;;;;;;;10.50;99.90;;;;;;4926309;28;112851;-69
2022/01/04 10:24:38;;;;;;;8.10;2.10;;;10.50;99.90;;;;;;4927709;28;112480;-70
2022/01/04 10:27:24;;;;;;;16.48;3.03;;;10.50;99.90;;;;;;4926973;28;114110;-67
2022/01/04 10:30:11;;;;;;;14.05;4.20;;;10.50;99.90;;;;;;4923674;28;114271;-71
2022/01/04 10:33:04;;;;;;;19.80;1.90;;;10.40;99.90;;;;;;4916086;28;113127;-68
2022/01/04 10:35:37;;;;;;;11.80;1.83;;;10.40;99.90;;;;;;4910519;28;112607;-66
2022/01/04 10:38:27;;;;;;;8.52;1.63;;;10.40;99.90;;;;;;4926504;28;112601;-66
2022/01/04 10:41:00;;;;;;;9.03;2.10;;;10.40;99.90;;;;;;4919184;28;114217;-70
2022/01/04 10:43:29;;;;;;;5.72;1.52;;;10.40;99.90;;;;;;4924799;28;112715;-65
2022/01/04 10:45:56;;;;;;;8.85;1.95;;;10.30;99.90;;;;;;4926005;28;112717;-66
2022/01/04 10:48:28;;;;;;;6.13;1.50;;;10.30;99.90;;;;;;4924895;28;112680;-67
2022/01/04 10:50:55;;;;;;;3.10;1.77;;;10.30;99.90;;;;;;4922741;28;113008;-69
2022/01/04 10:53:25;;;;;;;11.02;1.63;;;10.30;99.90;;;;;;4925251;28;113448;-65
2022/01/04 10:56:02;;;;;;;8.95;2.55;;;10.30;99.90;;;;;;4941025;28;112473;-66
2022/01/04 10:58:42;;;;;;;15.13;2.80;;;10.30;99.90;;;;;;4925743;28;112633;-68
2022/01/04 11:01:17;;;;;;;8.70;2.95;;;10.20;99.90;;;;;;4925229;28;114426;-68
2022/01/04 11:03:46;;;;;;;8.23;2.40;;;10.20;99.90;;;;;;4923670;28;114164;-67
2022/01/04 11:06:20;;;;;;;10.23;2.80;;;10.20;99.90;;;;;;4923664;28;112677;-67
2022/01/04 11:08:46;;;;;;;13.95;4.25;;;10.30;99.90;;;;;;4940714;28;112635;-68
2022/01/04 11:11:12;;;;;;;26.05;14.15;;;10.30;99.90;;;;;;4915066;28;113068;-65
2022/01/04 11:13:39;;;;;;;44.45;19.90;;;10.20;99.90;;;;;;4906946;28;115203;-68
2022/01/04 11:16:06;;;;;;;53.83;22.23;;;10.10;99.90;;;;;;4924589;28;112752;-67
2022/01/04 11:18:34;;;;;;;62.47;30.13;;;10.10;99.90;;;;;;4924013;28;113223;-68
2022/01/04 11:21:00;;;;;;;44.67;28.13;;;10.10;99.90;;;;;;4923057;28;113489;-69
2022/01/04 11:23:31;;;;;;;49.25;26.92;;;10.00;99.90;;;;;;4923755;28;113495;-69
2022/01/04 11:25:58;;;;;;;54.80;32.45;;;9.90;99.90;;;;;;4919678;28;113385;-68
2022/01/04 11:28:26;;;;;;;40.33;22.88;;;9.80;99.90;;;;;;4924520;28;112444;-63
2022/01/04 11:31:19;;;;;;;51.78;24.45;;;9.80;99.90;;;;;;4922489;28;113520;-68
2022/01/04 11:33:56;;;;;;;31.35;18.25;;;9.80;99.90;;;;;;4916026;28;112760;-69
2022/01/04 11:36:26;;;;;;;31.70;16.55;;;9.80;99.90;;;;;;4924839;28;112838;-66
2022/01/04 11:38:52;;;;;;;31.10;17.52;;;9.70;99.90;;;;;;4938986;28;113304;-67
2022/01/04 11:41:40;;;;;;;35.17;19.88;;;9.70;99.90;;;;;;4922649;28;113096;-70
2022/01/04 11:44:24;;;;;;;34.13;16.85;;;9.70;99.90;;;;;;4923607;28;114545;-68
2022/01/04 11:47:15;;;;;;;28.42;16.25;;;9.60;99.90;;;;;;4925150;28;112506;-65
2022/01/04 11:50:03;;;;;;;23.90;14.70;;;9.60;99.90;;;;;;4925276;28;112561;-65
2022/01/04 11:52:39;;;;;;;33.25;15.43;;;9.60;99.90;;;;;;4923894;28;113046;-65
2022/01/04 11:55:24;;;;;;;19.55;9.23;;;9.60;99.90;;;;;;4919358;28;113781;-66
2022/01/04 11:57:52;;;;;;;16.67;8.10;;;9.60;99.90;;;;;;4940473;28;113230;-65
2022/01/04 12:00:37;;;;;;;16.95;8.13;;;9.60;99.90;;;;;;4909190;28;112724;-68
2022/01/04 12:03:10;;;;;;;13.52;7.32;;;9.60;99.90;;;;;;4951982;22;113144;-59
2022/01/04 12:05:39;;;;;;;12.88;6.72;;;9.60;99.90;;;;;;4957505;28;113751;-59
2022/01/04 12:08:25;;;;;;;7.25;3.97;;;9.60;99.90;;;;;;4966754;28;112711;-62
2022/01/04 12:10:52;;;;;;;14.27;4.00;;;9.60;99.90;;;;;;4947519;28;112367;-63
2022/01/04 12:13:26;;;;;;;9.23;3.13;;;9.60;99.90;;;;;;4966406;28;113115;-61
2022/01/04 12:15:54;;;;;;;12.18;4.60;;;9.60;99.90;;;;;;4966811;28;114155;-62
2022/01/04 12:18:23;;;;;;;8.85;2.40;;;9.60;99.90;;;;;;4968051;28;112433;-60
2022/01/04 12:20:50;;;;;;;5.55;3.17;;;9.60;99.90;;;;;;4965424;28;112635;-62
2022/01/04 12:23:32;;;;;;;5.35;2.40;;;9.60;99.90;;;;;;4966160;28;113616;-59
2022/01/04 12:28:32;;;;;;;5.88;2.78;;;9.60;99.90;;;;;;4962104;28;112644;-60
2022/01/04 12:31:27;;;;;;;8.00;2.85;;;9.70;99.90;;;;;;4966940;28;112375;-62
2022/01/04 12:33:54;;;;;;;4.28;2.45;;;9.70;99.90;;;;;;4966435;28;113178;-60
2022/01/04 12:36:38;;;;;;;7.05;2.78;;;9.70;99.90;;;;;;4965901;28;112598;-61
2022/01/04 12:39:19;;;;;;;5.78;3.38;;;9.70;99.90;;;;;;4943102;28;112489;-62
2022/01/04 12:41:46;;;;;;;4.70;2.85;;;9.70;99.90;;;;;;4967401;28;113348;-58
2022/01/04 12:44:21;;;;;;;7.20;3.30;;;9.70;99.90;;;;;;4966497;28;114048;-58
2022/01/04 12:46:47;;;;;;;6.38;3.08;;;9.80;99.90;;;;;;4966493;28;112380;-61
2022/01/04 12:49:15;;;;;;;8.60;3.80;;;9.80;99.90;;;;;;4966763;28;113659;-60
2022/01/04 12:51:50;;;;;;;6.95;3.17;;;9.70;99.90;;;;;;4966381;28;112443;-61